Hauptseite
METAR-TAF:

METAR-TAF

Flughäfen :

Quimper, Frankreich

Flughafen Quimper-Bretagne

Breite: 47-58N, Länge: 004-10W, Höhe: 92 m

Beobachtung

Neuester Wetterbericht von vor 19 Minuten, um 05:30 UTC
Wind 4 kt aus West/Nordwest
Temperatur 5°C
Luftfeuchtigkeit 93%
Luftdruck 1022 hPa
Sichtweite 10 km oder mehr
Leicht bewölkt in der Höhe von 2400 ft
Aufgelockert bewölkt in der Höhe von 5000 ft

METAR: LFRQ 260530Z AUTO 29004KT 9999 FEW024 SCT050 05/04 Q1022 NOSIG

Zeit: 07:49 (05:49 UTC)

Prognose

Neuester Wetterbericht von vor 49 Minuten, um 05:00 UTC
Gültige Prognose vom 26 um 06 UTC bis 27 um 06 UTC
Wind 5 kt aus West
Sichtweite 10 km oder mehr
Aufgelockert bewölkt in der Höhe von 2000 ft
Übergehend zu
vom 27 um 03 UTC bis 27 um 06 UTC
Wind 12 kt aus Süd, Böen bis zu 22 kt
Durchbrochene Bewölkung in der Höhe von 1200 ft

TAF: LFRQ 260500Z 2606/2706 28005KT 9999 SCT020 BECMG 2703/2706 18012G22KT BKN012

Wetterbeobachtungen und Prognosen von mehr als 4000 Flughäfen (METAR und TAF Bericht).

Die verfügbaren Stationen werden durch gelbe und rote Markierungen auf der Karte dargestellt.

Führen Sie die Maus auf sie, um den Namen der Station zu sehen.

Darauf klicken, um die Beobachtung von Wetterbeobachtungen und Prognosen zu sehen.

Um die Karte zu ändern : klicken Sie auf den grünen Tasten mit einem schwarzen Kreuz Zum Vergrößern, auf den grünen Button mit einem Gedankenstrich zu verkleinern, oder auf die grünen Pfeile für benachbarte Karten.


METAR-TAF: